Time;durP1;ratioP1;P1;durP2;ratioP2;P2;SDS_P1;SDS_P2;PMS_P1;PMS_P2;Temp;Humidity;BMP_temperature;BMP_pressure;BME280_temperature;BME280_humidity;BME280_pressure;Samples;Min_cycle;Max_cycle;Signal;HPM_P1;HPM_P2
2023/06/15 00:00:33;;;;;;;67.90;5.77;;;;;;;24.79;52.17;99577.06;7310102;19;129315;-41
2023/06/15 00:02:58;;;;;;;34.85;3.35;;;;;;;24.79;52.03;99571.78;7311440;19;129455;-43
2023/06/15 00:05:25;;;;;;;30.70;3.40;;;;;;;24.76;52.02;99569.50;7308594;19;129408;-45
2023/06/15 00:07:51;;;;;;;40.45;3.55;;;;;;;24.76;52.66;99569.50;7311356;19;129405;-39
2023/06/15 00:10:17;;;;;;;31.53;3.07;;;;;;;24.76;52.12;99566.84;7311324;19;129369;-41
2023/06/15 00:12:42;;;;;;;26.50;3.03;;;;;;;24.76;52.40;99566.84;7309811;19;130241;-40
2023/06/15 00:15:08;;;;;;;34.25;3.28;;;;;;;24.71;52.34;99553.38;7307112;19;129286;-44
2023/06/15 00:17:37;;;;;;;54.90;4.53;;;;;;;24.76;52.19;99564.22;7310268;19;128908;-38
2023/06/15 00:20:04;;;;;;;44.75;4.20;;;;;;;24.75;52.04;99562.56;7310028;19;128864;-42
2023/06/15 00:22:29;;;;;;;60.38;4.82;;;;;;;24.76;52.40;99564.22;7310687;19;129279;-41
2023/06/15 00:24:55;;;;;;;27.93;3.07;;;;;;;24.76;52.02;99562.41;7310191;19;130015;-43
2023/06/15 00:27:20;;;;;;;47.93;3.70;;;;;;;24.75;52.16;99567.81;7311337;19;129469;-43
2023/06/15 00:29:46;;;;;;;50.88;4.15;;;;;;;24.77;52.55;99565.88;7309829;19;129257;-40
2023/06/15 00:32:11;;;;;;;41.60;3.60;;;;;;;24.77;52.54;99571.97;7310023;19;130169;-40
2023/06/15 00:34:37;;;;;;;33.55;3.65;;;;;;;24.74;52.51;99564.41;7309119;19;129329;-45
2023/06/15 00:37:02;;;;;;;44.53;3.80;;;;;;;24.77;52.52;99576.38;7308150;19;129121;-39
2023/06/15 00:39:27;;;;;;;34.38;3.40;;;;;;;24.76;52.77;99570.28;7310507;19;129447;-43
2023/06/15 00:41:53;;;;;;;23.97;2.77;;;;;;;24.77;52.93;99579.00;7309052;19;129024;-41
2023/06/15 00:44:18;;;;;;;31.45;3.00;;;;;;;24.67;52.02;99550.22;7309733;19;128992;-43
2023/06/15 00:46:44;;;;;;;37.97;3.30;;;;;;;24.77;52.48;99568.50;7308147;19;129107;-39
2023/06/15 00:49:09;;;;;;;35.03;3.42;;;;;;;24.77;52.35;99571.97;7310665;19;130942;-40
2023/06/15 00:51:40;;;;;;;28.10;3.13;;;;;;;24.79;53.08;99571.78;7308707;19;129148;-38
2023/06/15 00:54:06;;;;;;;33.55;2.92;;;;;;;24.78;52.39;99572.75;7306164;19;129681;-40
2023/06/15 00:56:31;;;;;;;56.20;4.57;;;;;;;24.78;52.44;99562.25;7313079;19;129269;-43
2023/06/15 00:58:57;;;;;;;25.70;3.00;;;;;;;24.70;52.39;99555.16;7316745;19;129526;-41
2023/06/15 01:01:23;;;;;;;33.17;3.05;;;;;;;24.76;52.61;99564.22;7315902;19;129131;-42
2023/06/15 01:03:49;;;;;;;39.80;3.83;;;;;;;24.80;52.83;99570.78;7315908;19;130447;-41
2023/06/15 01:06:18;;;;;;;23.52;2.60;;;;;;;24.77;52.29;99565.88;7314158;19;130804;-41
2023/06/15 01:08:47;;;;;;;37.42;3.47;;;;;;;24.77;52.24;99566.69;7317049;19;130296;-45
2023/06/15 01:11:14;;;;;;;22.27;2.40;;;;;;;24.76;52.99;99564.22;7315268;19;129985;-42
2023/06/15 01:13:40;;;;;;;35.90;3.30;;;;;;;24.76;52.26;99559.78;7313458;19;129408;-45
2023/06/15 01:16:10;;;;;;;67.05;5.03;;;;;;;24.77;52.59;99561.44;7314847;19;129153;-39
2023/06/15 01:18:41;;;;;;;45.75;4.28;;;;;;;24.75;52.83;99552.03;7315826;19;129200;-42
2023/06/15 01:21:08;;;;;;;40.85;3.40;;;;;;;24.77;52.72;99555.34;7314834;19;130455;-38
2023/06/15 01:23:41;;;;;;;;;;;;;;;24.85;52.38;99558.00;7316696;19;129701;-43
2023/06/15 01:26:09;;;;;;;52.22;3.92;;;;;;;24.79;52.69;99554.19;7314701;19;129522;-40
2023/06/15 01:28:36;;;;;;;56.70;4.72;;;;;;;24.76;52.20;99554.50;7315769;19;129446;-42
2023/06/15 01:31:01;;;;;;;35.95;3.28;;;;;;;24.76;52.76;99553.72;7314371;19;129627;-42
2023/06/15 01:33:27;;;;;;;74.43;5.97;;;;;;;24.77;52.87;99556.19;7313683;19;130327;-45
2023/06/15 01:35:53;;;;;;;53.20;4.07;;;;;;;24.77;52.47;99560.59;7314588;19;128965;-39
2023/06/15 01:38:23;;;;;;;44.37;3.70;;;;;;;24.77;52.87;99564.06;7315968;19;128951;-43
2023/06/15 01:40:50;;;;;;;13.45;2.10;;;;;;;24.76;52.57;99557.16;7315164;19;129745;-39
2023/06/15 01:43:22;;;;;;;37.53;3.42;;;;;;;24.77;52.79;99555.34;7314142;19;130338;-42
2023/06/15 01:45:49;;;;;;;7.40;1.70;;;;;;;24.70;52.54;99538.56;7314607;19;128941;-41
2023/06/15 01:48:15;;;;;;;25.77;2.58;;;;;;;24.68;52.55;99540.53;7315088;19;129328;-39
2023/06/15 01:50:41;;;;;;;30.87;2.87;;;;;;;24.75;52.34;99546.78;7314569;19;129512;-39
2023/06/15 01:53:07;;;;;;;34.65;3.10;;;;;;;24.75;52.42;99552.03;7313809;19;129910;-41
2023/06/15 01:55:34;;;;;;;41.85;3.95;;;;;;;24.76;52.56;99543.19;7314455;19;129170;-43
2023/06/15 01:57:59;;;;;;;70.25;5.32;;;;;;;24.76;53.05;99544.00;7314450;19;129013;-40
2023/06/15 02:00:25;;;;;;;50.33;4.40;;;;;;;24.76;52.42;99551.09;7315714;19;130117;-42
2023/06/15 02:02:50;;;;;;;28.20;2.83;;;;;;;24.78;53.05;99541.19;7311935;19;129344;-42
2023/06/15 02:05:18;;;;;;;33.40;3.00;;;;;;;24.76;53.21;99541.38;7312245;19;129324;-43
2023/06/15 02:07:43;;;;;;;36.35;3.42;;;;;;;24.76;53.07;99544.00;7315106;19;128836;-38
2023/06/15 02:10:09;;;;;;;35.97;3.37;;;;;;;24.77;52.83;99539.56;7314541;19;129554;-36
2023/06/15 02:12:35;;;;;;;31.17;3.27;;;;;;;24.77;53.12;99540.41;7313066;19;130857;-39
2023/06/15 02:15:03;;;;;;;44.47;4.00;;;;;;;24.77;52.72;99542.19;7313572;19;129025;-41
2023/06/15 02:17:32;;;;;;;40.75;3.50;;;;;;;24.67;52.71;99521.28;7315326;19;129446;-41
2023/06/15 02:19:58;;;;;;;36.38;3.33;;;;;;;24.74;52.90;99529.38;7313392;19;129610;-42
2023/06/15 02:22:23;;;;;;;32.10;2.83;;;;;;;24.68;52.50;99519.50;7312943;19;129624;-38
2023/06/15 02:24:49;;;;;;;27.65;2.72;;;;;;;24.78;53.12;99533.31;7314335;19;129414;-40
2023/06/15 02:27:14;;;;;;;37.97;3.23;;;;;;;24.78;52.10;99533.31;7311539;19;129192;-42
2023/06/15 02:29:40;;;;;;;62.03;4.68;;;;;;;24.77;52.74;99531.69;7312117;19;129228;-42
2023/06/15 02:32:06;;;;;;;15.63;2.30;;;;;;;24.76;52.20;99532.69;7312984;19;129075;-41
2023/06/15 02:34:32;;;;;;;43.03;3.53;;;;;;;24.78;52.91;99536.78;7310855;19;129425;-42
2023/06/15 02:36:58;;;;;;;37.40;3.15;;;;;;;24.79;53.20;99537.59;7312185;19;129240;-40
2023/06/15 02:39:23;;;;;;;27.27;2.83;;;;;;;24.78;52.49;99535.94;7313680;19;130667;-37
2023/06/15 02:41:49;;;;;;;28.60;2.83;;;;;;;24.78;52.79;99541.19;7311522;19;129670;-37
2023/06/15 02:44:15;;;;;;;60.57;4.63;;;;;;;24.76;52.80;99543.19;7312435;19;128960;-39
2023/06/15 02:46:40;;;;;;;37.60;3.33;;;;;;;24.67;52.60;99518.66;7313402;19;129173;-40
2023/06/15 02:49:06;;;;;;;39.30;3.78;;;;;;;24.79;52.92;99527.88;7312954;19;129482;-39
2023/06/15 02:51:32;;;;;;;80.13;6.17;;;;;;;24.76;52.48;99533.47;7311184;19;130217;-37
2023/06/15 02:53:58;;;;;;;48.67;4.00;;;;;;;24.78;52.48;99538.56;7310990;19;129606;-40
2023/06/15 02:56:23;;;;;;;30.10;3.03;;;;;;;24.77;52.48;99540.41;7312148;19;128862;-40
2023/06/15 02:58:53;;;;;;;36.53;3.37;;;;;;;24.72;52.71;99531.34;7313063;19;129940;-42
2023/06/15 03:01:20;;;;;;;21.40;2.40;;;;;;;24.75;52.67;99533.66;7313219;19;130374;-41
2023/06/15 03:03:45;;;;;;;24.30;2.67;;;;;;;24.75;52.42;99541.53;7312133;19;129288;-37
2023/06/15 03:06:11;;;;;;;54.17;4.10;;;;;;;24.76;52.57;99543.19;7310520;19;129026;-40
2023/06/15 03:08:38;;;;;;;56.83;4.40;;;;;;;24.76;52.75;99546.63;7310242;19;130273;-40
2023/06/15 03:11:03;;;;;;;34.38;3.28;;;;;;;24.79;52.81;99548.13;7310649;19;129436;-41
2023/06/15 03:13:29;;;;;;;45.83;3.90;;;;;;;24.78;53.18;99554.34;7311120;19;129432;-39
2023/06/15 03:15:55;;;;;;;29.30;2.95;;;;;;;24.77;52.75;99552.72;7310812;19;129489;-40
2023/06/15 03:18:21;;;;;;;32.57;3.13;;;;;;;24.77;52.77;99555.34;7310584;19;130062;-39
2023/06/15 03:20:52;;;;;;;26.63;2.83;;;;;;;24.79;52.80;99553.38;7311206;19;129602;-40
2023/06/15 03:23:20;;;;;;;45.05;3.65;;;;;;;24.75;52.85;99558.13;7313070;19;129417;-42
2023/06/15 03:25:46;;;;;;;33.58;3.13;;;;;;;24.76;53.22;99546.63;7311968;19;129592;-37
2023/06/15 03:28:11;;;;;;;23.67;2.40;;;;;;;24.70;52.94;99543.81;7311610;19;129603;-40
2023/06/15 03:30:40;;;;;;;53.47;4.57;;;;;;;24.77;52.80;99550.91;7310971;19;130257;-40
2023/06/15 03:33:08;;;;;;;26.88;2.88;;;;;;;24.75;53.23;99557.31;7311295;19;129321;-38
2023/06/15 03:35:34;;;;;;;66.00;4.82;;;;;;;24.74;53.34;99556.50;7311117;19;129315;-42
2023/06/15 03:37:59;;;;;;;34.67;3.27;;;;;;;24.76;53.26;99564.22;7312652;19;129548;-40
2023/06/15 03:40:25;;;;;;;31.37;3.27;;;;;;;24.77;52.32;99560.59;7310745;19;130816;-39
2023/06/15 03:42:50;;;;;;;44.50;3.77;;;;;;;24.66;53.07;99539.84;7311638;19;129404;-42
2023/06/15 03:45:17;;;;;;;24.87;2.73;;;;;;;24.74;52.60;99566.19;7312824;19;129873;-42
2023/06/15 03:47:44;;;;;;;34.13;3.08;;;;;;;24.72;53.51;99547.13;7308447;19;129315;-42
2023/06/15 03:50:11;;;;;;;58.28;4.65;;;;;;;24.77;53.03;99560.59;7311059;19;129438;-41
2023/06/15 03:52:36;;;;;;;38.65;3.58;;;;;;;24.75;53.25;99562.56;7309131;19;129136;-37
2023/06/15 03:55:02;;;;;;;43.07;3.77;;;;;;;24.74;52.67;99555.66;7311871;19;128713;-38
2023/06/15 03:57:27;;;;;;;23.43;2.63;;;;;;;24.75;53.46;99560.78;7305737;19;129597;-42
2023/06/15 03:59:53;;;;;;;46.83;4.00;;;;;;;24.68;53.04;99535.25;7310380;19;130033;-38
2023/06/15 04:02:18;;;;;;;44.95;3.72;;;;;;;24.73;53.21;99548.75;7310327;19;128956;-41
2023/06/15 04:04:43;;;;;;;22.57;2.33;;;;;;;24.76;53.60;99557.16;7312433;19;129397;-40
2023/06/15 04:07:09;;;;;;;44.77;3.80;;;;;;;24.76;52.80;99553.72;7307724;19;130229;-40
2023/06/15 04:09:34;;;;;;;62.15;5.05;;;;;;;24.76;52.97;99558.97;7308734;19;130099;-37
2023/06/15 04:12:00;;;;;;;40.70;3.73;;;;;;;24.78;52.63;99563.06;7309635;19;129947;-40
2023/06/15 04:14:25;;;;;;;27.43;2.70;;;;;;;24.78;52.40;99567.50;7309348;19;129415;-36
2023/06/15 04:16:51;;;;;;;36.75;3.30;;;;;;;24.77;53.28;99564.06;7308799;19;129811;-44
2023/06/15 04:19:17;;;;;;;39.47;3.50;;;;;;;24.76;53.31;99569.50;7310718;19;129880;-42
2023/06/15 04:21:42;;;;;;;42.77;3.83;;;;;;;24.76;52.98;99569.50;7309283;19;129356;-40
2023/06/15 04:24:07;;;;;;;35.17;3.60;;;;;;;24.77;52.81;99565.88;7310677;19;129215;-36
2023/06/15 04:26:33;;;;;;;34.00;3.47;;;;;;;24.76;52.72;99569.50;7306489;19;130149;-39
2023/06/15 04:28:58;;;;;;;42.60;3.77;;;;;;;24.77;52.98;99565.88;7309914;19;129306;-41
2023/06/15 04:31:24;;;;;;;75.30;5.73;;;;;;;24.71;53.36;99561.25;7312238;19;130827;-37
2023/06/15 04:33:50;;;;;;;26.10;2.90;;;;;;;24.77;52.82;99566.69;7313819;19;130339;-43
2023/06/15 04:36:16;;;;;;;117.73;8.27;;;;;;;24.78;53.43;99572.75;7313088;19;129958;-43
2023/06/15 04:38:49;;;;;;;58.53;4.65;;;;;;;24.76;53.25;99574.75;7315477;19;130333;-41
2023/06/15 04:41:16;;;;;;;49.63;4.40;;;;;;;24.65;53.47;99561.84;7315033;19;129272;-39
2023/06/15 04:43:42;;;;;;;38.63;3.58;;;;;;;24.74;53.40;99588.06;7317932;19;129447;-42
2023/06/15 04:46:08;;;;;;;23.47;2.53;;;;;;;24.66;53.32;99572.19;7309288;19;130330;-38
2023/06/15 04:48:33;;;;;;;45.00;4.00;;;;;;;24.76;53.36;99574.75;7315829;19;129109;-41
2023/06/15 04:50:59;;;;;;;40.03;3.53;;;;;;;24.76;52.98;99580.00;7313482;19;130039;-40
2023/06/15 04:53:25;;;;;;;60.27;4.63;;;;;;;24.76;52.30;99574.75;7315732;19;129625;-37
2023/06/15 04:55:50;;;;;;;30.50;3.07;;;;;;;24.76;52.77;99578.19;7313338;19;129597;-40
2023/06/15 04:58:17;;;;;;;37.03;3.33;;;;;;;24.75;53.48;99573.09;7316417;19;130132;-43
2023/06/15 05:00:42;;;;;;;84.95;6.38;;;;;;;24.76;53.15;99566.84;7310269;19;129638;-37
2023/06/15 05:03:08;;;;;;;27.23;3.17;;;;;;;24.77;53.40;99581.63;7317317;19;129509;-39
2023/06/15 05:05:34;;;;;;;159.30;10.93;;;;;;;24.77;53.07;99573.75;7309481;19;129574;-37
2023/06/15 05:07:59;;;;;;;73.50;4.90;;;;;;;24.63;53.00;99548.88;7314636;19;130626;-40
2023/06/15 05:10:25;;;;;;;53.97;4.57;;;;;;;24.73;53.43;99575.03;7313631;19;129429;-41
2023/06/15 05:12:50;;;;;;;27.27;2.90;;;;;;;24.72;52.96;99574.25;7313951;19;130115;-38
2023/06/15 05:15:15;;;;;;;52.33;4.30;;;;;;;24.72;53.25;99574.25;7312842;19;130119;-38
2023/06/15 05:17:41;;;;;;;69.40;5.10;;;;;;;24.71;53.12;99571.78;7309128;19;129643;-41
2023/06/15 05:20:08;;;;;;;63.00;4.83;;;;;;;24.73;53.39;99575.03;7310570;19;129982;-36
2023/06/15 05:22:33;;;;;;;37.10;3.60;;;;;;;24.75;52.90;99579.19;7312686;19;129417;-42
2023/06/15 05:24:59;;;;;;;56.73;4.77;;;;;;;24.74;52.86;99574.09;7312205;19;130211;-40
2023/06/15 05:27:24;;;;;;;45.60;3.67;;;;;;;24.72;53.46;99568.97;7312649;19;129149;-40
2023/06/15 05:29:49;;;;;;;39.63;3.43;;;;;;;24.75;53.40;99579.19;7312555;19;129012;-40
2023/06/15 05:32:15;;;;;;;35.97;3.07;;;;;;;24.74;52.94;99571.44;7312400;19;129733;-42
2023/06/15 05:34:41;;;;;;;57.20;4.30;;;;;;;24.74;53.08;99585.44;7310685;19;129752;-41
2023/06/15 05:37:06;;;;;;;45.70;3.67;;;;;;;24.72;53.76;99578.66;7313269;19;129347;-41
2023/06/15 05:39:31;;;;;;;47.93;3.83;;;;;;;24.75;52.89;99584.44;7315512;19;129177;-37
2023/06/15 05:41:57;;;;;;;33.47;3.30;;;;;;;24.74;53.32;99587.22;7313720;19;129191;-38
2023/06/15 05:44:22;;;;;;;45.77;3.70;;;;;;;24.74;52.86;99593.31;7315441;19;129002;-38
2023/06/15 05:46:47;;;;;;;30.50;2.83;;;;;;;24.74;52.95;99592.47;7313388;19;129417;-39
2023/06/15 05:49:13;;;;;;;28.57;2.77;;;;;;;24.62;53.05;99570.88;7314790;19;129321;-42
2023/06/15 05:51:38;;;;;;;31.57;3.33;;;;;;;24.75;52.89;99586.22;7313409;19;129115;-40
2023/06/15 05:54:03;;;;;;;41.50;3.53;;;;;;;24.74;53.24;99587.22;7313341;19;129291;-39
2023/06/15 05:56:30;;;;;;;32.30;3.10;;;;;;;24.75;53.00;99583.59;7313401;19;129921;-39
2023/06/15 05:58:55;;;;;;;28.08;2.85;;;;;;;24.73;52.96;99591.66;7314985;19;128828;-42
2023/06/15 06:01:21;;;;;;;22.92;2.40;;;;;;;24.76;52.91;99587.91;7315096;19;129654;-38
2023/06/15 06:03:46;;;;;;;59.43;4.53;;;;;;;24.78;52.63;99594.63;7316017;19;130239;-41
2023/06/15 06:06:13;;;;;;;9.30;1.83;;;;;;;24.72;52.92;99578.66;7313993;19;130528;-40
2023/06/15 06:08:38;;;;;;;31.83;3.17;;;;;;;24.71;53.28;99587.56;7315361;19;129202;-37
2023/06/15 06:11:07;;;;;;;48.37;3.63;;;;;;;24.81;53.53;99596.13;7314010;19;128885;-41
2023/06/15 06:13:33;;;;;;;41.80;3.35;;;;;;;24.81;52.98;99601.38;7312781;19;129495;-43
2023/06/15 06:15:59;;;;;;;23.43;2.57;;;;;;;24.81;53.52;99610.06;7313354;19;129917;-35
2023/06/15 06:18:24;;;;;;;30.27;2.63;;;;;;;24.81;53.06;99606.66;7314246;19;128915;-43
2023/06/15 06:20:49;;;;;;;25.23;2.37;;;;;;;24.78;53.43;99606.94;7313784;19;129000;-38
2023/06/15 06:23:15;;;;;;;37.90;3.33;;;;;;;24.77;53.21;99610.56;7314503;19;130093;-40
2023/06/15 06:25:40;;;;;;;26.80;2.40;;;;;;;24.72;53.31;99611.06;7313553;19;131200;-42
2023/06/15 06:28:06;;;;;;;35.50;3.17;;;;;;;24.76;53.55;99616.81;7314585;19;129351;-38
2023/06/15 06:30:32;;;;;;;68.85;5.40;;;;;;;24.74;53.37;99611.72;7313729;19;130096;-42
2023/06/15 06:32:57;;;;;;;42.27;3.80;;;;;;;24.73;53.70;99622.38;7314022;19;130039;-37
2023/06/15 06:35:23;;;;;;;28.47;2.60;;;;;;;24.73;53.47;99611.84;7312848;19;131103;-41
2023/06/15 06:37:48;;;;;;;30.03;2.53;;;;;;;24.73;53.83;99612.69;7314191;19;129466;-39
2023/06/15 06:40:13;;;;;;;40.73;3.30;;;;;;;24.74;53.19;99610.88;7313656;19;129010;-42
2023/06/15 06:42:39;;;;;;;29.37;2.80;;;;;;;24.74;53.30;99618.78;7313995;19;129235;-36
2023/06/15 06:45:05;;;;;;;47.50;3.87;;;;;;;24.74;53.11;99618.78;7312917;19;130349;-39
2023/06/15 06:47:30;;;;;;;36.07;3.13;;;;;;;24.72;53.46;99618.09;7313020;19;128916;-35
2023/06/15 06:49:59;;;;;;;52.28;4.07;;;;;;;24.75;53.75;99620.41;7313985;19;129334;-39
2023/06/15 06:52:24;;;;;;;28.25;2.80;;;;;;;24.70;53.44;99612.19;7311936;19;130957;-35
2023/06/15 06:54:49;;;;;;;9.10;1.80;;;;;;;24.72;53.33;99624.19;7312499;19;129475;-41
2023/06/15 06:57:15;;;;;;;30.07;3.03;;;;;;;24.71;53.92;99629.63;7310980;19;128930;-41
2023/06/15 06:59:40;;;;;;;47.03;3.60;;;;;;;24.73;53.51;99628.47;7313545;19;129755;-42
2023/06/15 07:02:06;;;;;;;38.90;3.40;;;;;;;24.73;53.51;99633.72;7312784;19;129051;-36
2023/06/15 07:04:31;;;;;;;29.07;2.60;;;;;;;24.72;53.60;99629.47;7313787;19;131229;-38
2023/06/15 07:06:56;;;;;;;33.33;2.92;;;;;;;24.72;53.11;99632.09;7310176;19;130397;-36
2023/06/15 07:09:22;;;;;;;46.67;3.70;;;;;;;24.77;53.33;99628.97;7313771;19;129714;-38
2023/06/15 07:11:47;;;;;;;23.07;2.47;;;;;;;24.73;53.57;99630.25;7312426;19;129487;-38
2023/06/15 07:14:12;;;;;;;25.23;2.37;;;;;;;24.73;53.56;99632.88;7311780;19;129398;-40
2023/06/15 07:16:38;;;;;;;70.63;4.87;;;;;;;24.73;53.79;99627.63;7310075;19;129569;-40
2023/06/15 07:19:03;;;;;;;33.47;2.90;;;;;;;24.71;53.85;99619.09;7313681;19;129029;-40
2023/06/15 07:21:29;;;;;;;31.27;2.73;;;;;;;24.74;53.98;99621.41;7313314;19;129279;-41
2023/06/15 07:23:54;;;;;;;28.93;2.63;;;;;;;24.74;53.39;99618.78;7311326;19;130681;-40
2023/06/15 07:26:20;;;;;;;35.83;3.07;;;;;;;24.75;53.44;99620.41;7311703;19;129020;-41
2023/06/15 07:28:45;;;;;;;16.67;1.95;;;;;;;24.74;53.85;99626.66;7313372;19;129275;-40
2023/06/15 07:31:10;;;;;;;39.40;3.17;;;;;;;24.73;53.32;99623.22;7312947;19;129389;-41
2023/06/15 07:33:36;;;;;;;29.77;2.70;;;;;;;24.71;53.43;99624.38;7311741;19;129709;-41
2023/06/15 07:36:01;;;;;;;42.53;3.13;;;;;;;24.73;53.93;99622.38;7311500;19;129737;-40
2023/06/15 07:38:26;;;;;;;35.80;3.07;;;;;;;24.70;53.92;99622.69;7313095;19;130472;-41
2023/06/15 07:40:52;;;;;;;25.40;2.43;;;;;;;24.73;53.35;99622.38;7313500;19;129478;-39
2023/06/15 07:43:18;;;;;;;28.03;2.50;;;;;;;24.72;53.91;99628.63;7313713;19;129641;-38
2023/06/15 07:45:45;;;;;;;38.13;3.50;;;;;;;24.73;53.25;99615.31;7310785;19;129746;-41
2023/06/15 07:48:10;;;;;;;30.90;2.70;;;;;;;24.72;53.57;99615.47;7313378;19;129378;-42
2023/06/15 07:50:36;;;;;;;79.83;5.73;;;;;;;24.72;53.57;99620.75;7310775;19;129454;-39
2023/06/15 07:53:01;;;;;;;29.95;2.78;;;;;;;24.73;53.31;99625.00;7311612;19;130043;-40
2023/06/15 07:55:26;;;;;;;40.60;3.42;;;;;;;24.71;53.62;99619.09;7309189;19;129324;-40
2023/06/15 07:57:52;;;;;;;25.27;2.15;;;;;;;24.71;53.90;99613.84;7312461;19;129523;-38
2023/06/15 08:00:18;;;;;;;47.53;3.58;;;;;;;24.72;53.92;99615.47;7311408;19;129092;-41
2023/06/15 08:02:43;;;;;;;39.13;3.27;;;;;;;24.71;53.81;99619.91;7311087;19;129210;-42
2023/06/15 08:05:09;;;;;;;57.30;4.40;;;;;;;24.70;53.66;99620.91;7311465;19;129318;-37
2023/06/15 08:07:34;;;;;;;34.23;3.10;;;;;;;24.70;53.70;99612.19;7311235;19;129077;-35
2023/06/15 08:10:00;;;;;;;31.08;2.75;;;;;;;24.65;53.38;99610.00;7311726;19;130865;-39
2023/06/15 08:12:26;;;;;;;40.92;3.35;;;;;;;24.72;53.33;99613.69;7310063;19;130406;-37
2023/06/15 08:14:51;;;;;;;37.97;3.00;;;;;;;24.73;53.60;99617.13;7308876;19;128920;-40
2023/06/15 08:17:16;;;;;;;29.15;2.60;;;;;;;24.71;53.57;99625.16;7306358;19;129369;-39
2023/06/15 08:19:42;;;;;;;22.73;2.20;;;;;;;24.70;53.86;99615.66;7310935;19;129218;-38
2023/06/15 08:22:07;;;;;;;46.73;3.60;;;;;;;24.70;53.20;99612.19;7310421;19;130306;-42
2023/06/15 08:24:32;;;;;;;42.67;3.20;;;;;;;24.69;53.65;99614.00;7310956;19;129563;-42
2023/06/15 08:27:00;;;;;;;30.40;2.70;;;;;;;24.71;53.37;99617.28;7306748;19;129403;-39
2023/06/15 08:29:25;;;;;;;21.58;2.20;;;;;;;24.71;53.54;99616.47;7310195;19;129229;-41
2023/06/15 08:31:51;;;;;;;79.90;5.27;;;;;;;24.72;53.80;99610.22;7310070;19;129923;-42
2023/06/15 08:34:17;;;;;;;8.83;1.60;;;;;;;24.70;53.85;99614.81;7310214;19;128804;-41
2023/06/15 08:36:42;;;;;;;27.73;2.50;;;;;;;24.69;53.53;99619.25;7307622;19;129816;-35
2023/06/15 08:39:07;;;;;;;23.53;2.20;;;;;;;24.70;53.67;99612.19;7310245;19;129873;-41
2023/06/15 08:41:36;;;;;;;48.87;3.73;;;;;;;24.70;53.49;99605.13;7310282;19;129432;-36
2023/06/15 08:44:03;;;;;;;38.20;3.00;;;;;;;24.71;53.24;99613.84;7310641;19;129522;-42
2023/06/15 08:46:29;;;;;;;37.75;3.08;;;;;;;24.61;53.73;99595.50;7308237;19;129076;-42
2023/06/15 08:48:55;;;;;;;22.50;2.03;;;;;;;24.69;53.83;99610.53;7309913;19;130103;-41
2023/06/15 08:51:22;;;;;;;47.53;3.40;;;;;;;24.70;53.44;99606.91;7309696;19;130348;-42
2023/06/15 08:53:48;;;;;;;25.95;2.40;;;;;;;24.70;53.46;99606.91;7309800;19;129702;-42
2023/06/15 08:56:14;;;;;;;20.93;2.00;;;;;;;24.69;53.67;99611.38;7308275;19;128954;-38
2023/06/15 08:58:40;;;;;;;47.90;3.80;;;;;;;24.71;54.15;99603.31;7309346;19;130276;-41
2023/06/15 09:01:06;;;;;;;;;;;;;;;24.76;53.42;99598.41;7309534;19;129479;-38
2023/06/15 09:03:33;;;;;;;30.63;2.53;;;;;;;24.70;53.44;99597.22;7310138;19;129967;-39
2023/06/15 09:05:59;;;;;;;45.95;3.65;;;;;;;24.68;53.56;99598.38;7308483;19;130265;-42
2023/06/15 09:08:25;;;;;;;25.35;2.38;;;;;;;24.71;53.91;99605.97;7309232;19;129494;-39
2023/06/15 09:10:51;;;;;;;30.67;2.53;;;;;;;24.68;54.10;99601.00;7309205;19;129549;-38
2023/06/15 09:13:16;;;;;;;41.27;3.47;;;;;;;24.69;53.47;99595.59;7310039;19;129849;-40
2023/06/15 09:15:43;;;;;;;29.20;2.73;;;;;;;24.71;53.65;99590.19;7307826;19;129875;-41
2023/06/15 09:18:10;;;;;;;30.63;2.63;;;;;;;24.71;53.42;99598.06;7316574;19;129491;-39
2023/06/15 09:20:38;;;;;;;67.07;4.97;;;;;;;24.68;53.85;99588.69;7315467;19;129741;-39
2023/06/15 09:23:10;;;;;;;29.60;2.50;;;;;;;24.67;54.33;99591.44;7317472;19;129055;-42
2023/06/15 09:25:36;;;;;;;37.47;3.35;;;;;;;24.69;53.89;99590.34;7314524;19;130781;-38
2023/06/15 09:28:04;;;;;;;40.70;3.33;;;;;;;24.69;53.38;99585.09;7315232;19;129789;-39
2023/06/15 09:30:37;;;;;;;81.65;5.68;;;;;;;24.69;53.80;99579.00;7314032;19;129360;-38
2023/06/15 09:33:17;;;;;;;24.90;2.28;;;;;;;24.68;54.46;99578.16;7316439;19;128979;-43
2023/06/15 09:36:02;;;;;;;32.47;2.65;;;;;;;24.70;53.91;99578.00;7312047;19;130480;-37
2023/06/15 09:38:30;;;;;;;35.53;3.35;;;;;;;24.68;54.21;99582.59;7315119;19;130785;-42
2023/06/15 09:40:56;;;;;;;28.05;2.53;;;;;;;24.68;54.60;99583.41;7315888;19;129383;-37
2023/06/15 09:43:21;;;;;;;27.23;2.43;;;;;;;24.68;54.08;99572.91;7316213;19;129231;-40
2023/06/15 09:45:50;;;;;;;42.40;3.50;;;;;;;24.66;54.09;99579.28;7313855;19;129086;-38
2023/06/15 09:48:16;;;;;;;36.03;2.72;;;;;;;24.67;53.70;99573.88;7315118;19;131005;-37
2023/06/15 09:50:41;;;;;;;34.40;2.80;;;;;;;24.67;53.53;99575.66;7314421;19;129277;-37
2023/06/15 09:53:11;;;;;;;34.83;2.93;;;;;;;24.64;54.43;99557.59;7314853;19;129918;-40
2023/06/15 09:55:43;;;;;;;53.25;4.05;;;;;;;24.64;54.07;99563.69;7312617;19;129590;-35
2023/06/15 09:58:09;;;;;;;39.38;3.03;;;;;;;24.67;53.91;99557.25;7314653;19;129303;-41
2023/06/15 10:00:35;;;;;;;43.58;3.63;;;;;;;24.66;53.48;99555.63;7315495;19;129930;-43
2023/06/15 10:03:03;;;;;;;23.83;2.37;;;;;;;24.67;53.93;99554.63;7315040;19;129041;-40
2023/06/15 10:05:32;;;;;;;55.85;4.25;;;;;;;24.65;54.06;99561.84;7313703;19;129644;-41
2023/06/15 10:08:01;;;;;;;40.03;2.97;;;;;;;24.66;54.28;99550.38;7314552;19;129260;-37
2023/06/15 10:10:29;;;;;;;55.92;4.38;;;;;;;24.66;53.97;99558.25;7314304;19;131706;-42
2023/06/15 10:12:57;;;;;;;26.25;2.30;;;;;;;24.68;53.71;99551.03;7312866;19;129253;-40
2023/06/15 10:15:24;;;;;;;43.20;3.35;;;;;;;24.67;53.70;99549.38;7310801;19;129114;-42
2023/06/15 10:17:52;;;;;;;40.92;3.15;;;;;;;24.66;54.28;99550.38;7314260;19;130405;-42
2023/06/15 10:20:19;;;;;;;29.90;2.55;;;;;;;24.66;54.33;99551.16;7315138;19;131070;-41
2023/06/15 10:22:57;;;;;;;17.38;1.75;;;;;;;24.67;53.69;99539.69;7314577;19;129000;-36
2023/06/15 10:25:23;;;;;;;32.10;2.63;;;;;;;24.67;53.55;99549.38;7313122;19;129824;-39
2023/06/15 10:27:49;;;;;;;50.97;3.53;;;;;;;24.66;53.69;99559.06;7313761;19;129534;-41
2023/06/15 10:30:35;;;;;;;33.47;2.70;;;;;;;24.67;54.11;99549.38;7314391;19;129279;-37
2023/06/15 10:33:37;;;;;;;35.20;2.85;;;;;;;24.69;54.19;99552.69;7314303;19;130359;-41
2023/06/15 10:36:11;;;;;;;29.73;2.42;;;;;;;24.63;53.76;99542.78;7312603;19;129291;-37
2023/06/15 10:38:47;;;;;;;43.05;3.30;;;;;;;24.59;53.67;99530.94;7312665;19;129665;-42
2023/06/15 10:41:13;;;;;;;14.77;1.58;;;;;;;24.64;53.97;99534.75;7314240;19;130407;-37
2023/06/15 10:43:39;;;;;;;28.75;2.53;;;;;;;24.55;53.70;99514.69;7313585;19;129013;-44
2023/06/15 10:46:06;;;;;;;31.50;2.60;;;;;;;24.67;54.45;99525.72;7311546;19;128685;-41
2023/06/15 10:48:38;;;;;;;39.45;3.20;;;;;;;24.67;54.10;99523.09;7312960;19;130084;-38
2023/06/15 10:51:05;;;;;;;11.20;1.58;;;;;;;24.65;54.14;99519.78;7313203;19;130068;-38
2023/06/15 10:53:39;;;;;;;29.90;2.72;;;;;;;24.66;54.52;99524.06;7312397;19;128953;-37
2023/06/15 10:56:13;;;;;;;29.67;2.55;;;;;;;24.63;53.95;99509.44;7310889;19;128950;-39
2023/06/15 10:59:03;;;;;;;43.25;3.20;;;;;;;24.66;54.08;99510.94;7312238;19;131130;-41
2023/06/15 11:01:32;;;;;;;22.05;2.17;;;;;;;24.63;53.62;99496.28;7313281;19;130721;-42
2023/06/15 11:03:58;;;;;;;47.38;3.55;;;;;;;24.64;54.13;99502.38;7312408;19;129262;-42
2023/06/15 11:06:56;;;;;;;25.10;2.20;;;;;;;24.69;54.63;99503.59;7311690;19;128926;-42
2023/06/15 11:09:24;;;;;;;29.80;2.17;;;;;;;24.65;53.99;99498.75;7312328;19;130999;-39
2023/06/15 11:11:50;;;;;;;24.88;2.15;;;;;;;24.65;54.59;99504.00;7313065;19;129357;-42
2023/06/15 11:14:18;;;;;;;38.40;3.20;;;;;;;24.66;54.36;99492.53;7310669;19;129090;-40